Time;durP1;ratioP1;P1;durP2;ratioP2;P2;SDS_P1;SDS_P2;PMS_P1;PMS_P2;Temp;Humidity;BMP_temperature;BMP_pressure;BME280_temperature;BME280_humidity;BME280_pressure;Samples;Min_cycle;Max_cycle;Signal;HPM_P1;HPM_P2
2023/07/19 04:11:45;;;;;;;12.93;6.65;;;;;;;20.74;100.00;99921.41;5565154;32;222036;-87
2023/07/19 04:15:21;;;;;;;9.38;6.40;;;;;;;20.74;100.00;99924.09;5549126;32;33437;-88
2023/07/19 04:19:01;;;;;;;9.25;5.80;;;;;;;20.86;100.00;99924.72;5545768;32;32129;-93
2023/07/19 04:22:22;;;;;;;11.73;7.05;;;;;;;20.99;100.00;99935.13;5545679;32;33123;-88
2023/07/19 04:26:08;;;;;;;13.32;7.37;;;;;;;21.08;100.00;99926.09;5554148;32;35038;-88
2023/07/19 04:29:45;;;;;;;;;;;;;;;;;;;;;
2023/07/19 04:32:54;;;;;;;5.47;3.90;;;;;;;21.23;100.00;99920.97;5546591;32;34274;-88
2023/07/19 04:35:58;;;;;;;7.68;5.40;;;;;;;22.25;100.00;99924.94;5546112;32;33337;-87
2023/07/19 04:39:01;;;;;;;6.95;5.45;;;;;;;22.88;98.76;99924.59;5546061;32;33879;-88
2023/07/19 04:42:04;;;;;;;8.23;5.97;;;;;;;23.14;96.12;99928.97;5546101;32;33863;-88
2023/07/19 04:45:08;;;;;;;7.78;5.93;;;;;;;23.44;94.35;99928.47;5545589;32;33346;-88
2023/07/19 04:48:11;;;;;;;9.93;5.87;;;;;;;23.58;90.22;99924.22;5545586;32;33191;-88
2023/07/19 04:51:14;;;;;;;6.57;5.25;;;;;;;23.64;89.89;99920.81;5545365;32;34735;-88
2023/07/19 04:54:17;;;;;;;10.63;5.95;;;;;;;23.64;88.62;99929.75;5546072;32;33457;-91
2023/07/19 04:57:19;;;;;;;9.13;5.80;;;;;;;23.91;88.00;99924.94;5545715;32;33538;-92
2023/07/19 05:00:22;;;;;;;8.05;5.43;;;;;;;24.12;88.46;99936.25;5545534;32;34595;-92
2023/07/19 05:03:25;;;;;;;9.35;6.05;;;;;;;23.92;88.66;99933.91;5545648;32;35132;-92
2023/07/19 05:06:29;;;;;;;9.90;6.75;;;;;;;24.04;86.56;99927.09;5546425;32;33572;-89
2023/07/19 05:09:32;;;;;;;8.18;5.72;;;;;;;24.31;85.54;99916.84;5546167;32;34969;-87
2023/07/19 05:12:35;;;;;;;11.73;6.50;;;;;;;24.52;83.22;99923.47;5546648;32;34823;-87
2023/07/19 05:15:38;;;;;;;7.05;5.68;;;;;;;24.54;83.28;99926.84;5544897;32;33669;-87
2023/07/19 05:18:41;;;;;;;11.77;6.55;;;;;;;24.72;82.68;99926.56;5544016;32;33827;-87
2023/07/19 05:21:44;;;;;;;7.70;4.93;;;;;;;24.32;85.97;99928.50;5536940;32;33792;-87
2023/07/19 05:24:47;;;;;;;9.75;5.60;;;;;;;24.35;86.58;99918.16;5532895;32;34069;-88
2023/07/19 05:27:50;;;;;;;9.60;5.70;;;;;;;24.63;80.42;99933.91;5533110;32;33844;-89
2023/07/19 05:30:53;;;;;;;10.77;6.00;;;;;;;24.71;77.97;99941.16;5533124;32;33900;-88
2023/07/19 05:33:55;;;;;;;6.18;5.57;;;;;;;25.22;76.89;99931.63;5533036;32;34604;-88
2023/07/19 05:36:58;;;;;;;10.40;5.28;;;;;;;25.75;71.74;99921.78;5532072;32;33753;-88
2023/07/19 05:40:03;;;;;;;11.20;5.15;;;;;;;26.17;70.15;99924.84;5532215;32;34401;-86
2023/07/19 05:43:06;;;;;;;9.00;5.03;;;;;;;27.11;65.04;99925.84;5531975;32;33820;-86
2023/07/19 05:46:09;;;;;;;13.13;5.60;;;;;;;28.01;60.33;99937.16;5531933;32;34597;-86
2023/07/19 05:49:12;;;;;;;7.68;5.28;;;;;;;27.96;58.64;99946.78;5532284;32;33913;-87
2023/07/19 05:52:14;;;;;;;12.95;5.40;;;;;;;27.38;62.23;99950.59;5530979;32;33456;-87
2023/07/19 05:55:17;;;;;;;9.88;5.80;;;;;;;26.49;64.28;99947.19;5530871;32;33700;-87
2023/07/19 05:58:20;;;;;;;9.23;5.30;;;;;;;26.45;64.89;99943.19;5531277;32;33704;-86
2023/07/19 06:01:24;;;;;;;7.47;5.57;;;;;;;26.17;67.28;99943.88;5533579;32;33806;-87
2023/07/19 06:04:34;;;;;;;7.18;5.25;;;;;;;25.84;68.02;99955.97;5532269;32;34287;-86
2023/07/19 06:07:36;;;;;;;7.30;5.22;;;;;;;25.80;70.59;99954.69;5531274;32;33749;-87
2023/07/19 06:10:39;;;;;;;8.15;5.12;;;;;;;26.18;68.98;99948.25;5527293;32;33547;-87
2023/07/19 06:13:42;;;;;;;6.05;5.05;;;;;;;26.85;65.73;99946.31;5530388;32;33925;-87
2023/07/19 06:16:45;;;;;;;8.32;4.90;;;;;;;26.90;64.13;99949.31;5531858;32;33360;-86
2023/07/19 06:19:47;;;;;;;10.88;5.22;;;;;;;27.83;61.07;99963.06;5532897;32;34533;-87
2023/07/19 06:22:50;;;;;;;11.82;5.07;;;;;;;28.64;56.65;99961.53;5532300;32;34796;-87
2023/07/19 06:25:53;;;;;;;6.03;4.85;;;;;;;29.25;55.33;99958.91;5532442;32;35138;-87
2023/07/19 06:28:56;;;;;;;5.37;4.85;;;;;;;28.92;55.37;99954.28;5532348;32;33976;-87
2023/07/19 06:31:59;;;;;;;8.23;5.03;;;;;;;28.09;58.88;99951.47;5531980;32;35304;-87
2023/07/19 06:35:05;;;;;;;10.35;5.75;;;;;;;27.57;59.36;99940.87;5532803;32;34120;-88
2023/07/19 06:38:07;;;;;;;21.55;6.20;;;;;;;27.07;62.37;99945.50;5534180;32;33930;-88
2023/07/19 06:41:10;;;;;;;12.85;4.97;;;;;;;26.82;64.36;99941.28;5535754;32;34760;-89
2023/07/19 06:44:13;;;;;;;13.38;5.85;;;;;;;27.08;62.76;99947.19;5545194;32;35010;-88
2023/07/19 06:47:16;;;;;;;14.73;5.37;;;;;;;27.19;63.02;99946.66;5545682;32;35129;-89
2023/07/19 06:50:19;;;;;;;11.02;5.05;;;;;;;27.22;64.43;99940.81;5534793;32;33878;-88
2023/07/19 06:53:22;;;;;;;11.00;5.25;;;;;;;27.24;63.78;99943.34;5532125;32;34672;-87
2023/07/19 06:56:24;;;;;;;11.95;5.03;;;;;;;27.36;64.12;99938.19;5533733;32;33725;-87
2023/07/19 06:59:28;;;;;;;8.38;5.35;;;;;;;27.33;66.65;99922.25;5541129;32;33772;-88
2023/07/19 07:02:31;;;;;;;17.70;5.55;;;;;;;27.23;66.01;99918.00;5542832;32;34707;-87
2023/07/19 07:05:34;;;;;;;7.95;5.40;;;;;;;26.81;65.08;99919.69;5542460;32;34318;-87
2023/07/19 07:08:36;;;;;;;11.65;6.03;;;;;;;26.69;65.28;99920.22;5534215;32;33776;-87
2023/07/19 07:11:40;;;;;;;9.88;5.30;;;;;;;26.16;68.50;99917.72;5533293;32;34569;-87
2023/07/19 07:14:42;;;;;;;12.73;5.47;;;;;;;26.37;68.80;99914.22;5532512;32;33823;-88
2023/07/19 07:17:47;;;;;;;10.95;5.85;;;;;;;26.86;68.86;99918.06;5532093;32;34100;-87
2023/07/19 07:20:51;;;;;;;7.87;5.70;;;;;;;27.08;65.78;99922.69;5533045;32;33407;-88
2023/07/19 07:23:54;;;;;;;10.60;6.25;;;;;;;27.01;69.34;99917.19;5533010;32;34426;-88
2023/07/19 07:26:57;;;;;;;7.62;5.53;;;;;;;26.98;66.11;99909.41;5533884;32;33939;-88
2023/07/19 07:30:00;;;;;;;7.37;5.53;;;;;;;27.08;67.70;99915.38;5532499;32;34092;-89
2023/07/19 07:33:03;;;;;;;7.55;5.60;;;;;;;26.80;66.69;99912.59;5533029;32;33741;-88
2023/07/19 07:36:07;;;;;;;12.07;5.53;;;;;;;26.72;69.63;99922.56;5532953;32;33858;-89
2023/07/19 07:39:11;;;;;;;13.50;6.00;;;;;;;26.70;68.50;99919.19;5531600;32;33806;-88
2023/07/19 07:42:14;;;;;;;12.05;5.90;;;;;;;26.77;67.98;99931.00;5531930;32;33614;-88
2023/07/19 07:45:17;;;;;;;13.62;5.60;;;;;;;26.93;71.11;99923.63;5534714;32;33538;-89
2023/07/19 07:48:22;;;;;;;13.50;5.50;;;;;;;27.29;66.99;99924.53;5540563;32;33715;-89
2023/07/19 07:51:25;;;;;;;14.73;5.72;;;;;;;27.38;67.70;99927.94;5539510;32;33960;-89
2023/07/19 07:54:28;;;;;;;10.50;5.45;;;;;;;27.56;67.52;99925.56;5533836;32;33702;-88
2023/07/19 07:57:33;;;;;;;9.93;5.53;;;;;;;27.20;69.63;99921.09;5535875;32;33981;-89
2023/07/19 08:00:37;;;;;;;12.00;5.80;;;;;;;27.52;67.91;99927.00;5533234;32;34367;-88
2023/07/19 08:03:40;;;;;;;17.27;6.00;;;;;;;27.81;66.95;99925.09;5531656;32;34407;-88
2023/07/19 08:06:45;;;;;;;9.48;5.45;;;;;;;27.95;66.29;99925.19;5530934;32;33946;-88
2023/07/19 08:09:48;;;;;;;11.98;5.43;;;;;;;27.87;66.40;99928.91;5530141;32;33767;-88
2023/07/19 08:12:50;;;;;;;9.55;5.65;;;;;;;28.12;65.80;99925.69;5530941;32;34509;-88
2023/07/19 08:15:53;;;;;;;16.70;5.70;;;;;;;28.27;65.17;99924.72;5531317;32;33533;-88
2023/07/19 08:18:56;;;;;;;9.38;5.80;;;;;;;28.25;64.95;99922.19;5532510;32;33691;-88
2023/07/19 08:22:03;;;;;;;11.55;5.75;;;;;;;27.96;65.80;99913.25;5531446;32;33930;-88
2023/07/19 08:25:06;;;;;;;9.63;5.53;;;;;;;28.20;63.38;99900.13;5530661;32;33361;-88
2023/07/19 08:28:27;;;;;;;12.15;5.53;;;;;;;28.33;64.65;99902.06;5531110;32;33749;-88
2023/07/19 08:31:30;;;;;;;12.30;5.62;;;;;;;28.46;63.91;99893.09;5531193;32;34632;-89
2023/07/19 08:34:34;;;;;;;13.65;6.07;;;;;;;28.82;63.09;99900.06;5530709;32;33750;-89
2023/07/19 08:37:36;;;;;;;10.55;5.78;;;;;;;28.65;64.83;99896.88;5531647;32;34042;-89
2023/07/19 08:40:39;;;;;;;10.73;6.05;;;;;;;28.72;63.16;99905.94;5531709;32;35474;-89
2023/07/19 08:43:44;;;;;;;11.57;5.90;;;;;;;28.44;64.10;99912.38;5531426;32;33869;-89
2023/07/19 08:46:49;;;;;;;13.07;6.18;;;;;;;28.21;64.56;99908.09;5531564;32;34467;-89
2023/07/19 08:49:52;;;;;;;11.10;6.00;;;;;;;28.05;66.19;99913.91;5531038;32;33513;-89
2023/07/19 08:53:01;;;;;;;11.75;5.87;;;;;;;28.40;65.44;99913.00;5530100;32;33639;-89
2023/07/19 08:56:04;;;;;;;11.30;5.43;;;;;;;28.33;66.23;99918.44;5529842;32;34426;-88
2023/07/19 08:59:07;;;;;;;9.45;5.90;;;;;;;28.89;66.24;99905.56;5531370;32;33815;-88
2023/07/19 09:02:10;;;;;;;13.45;5.72;;;;;;;28.65;64.28;99916.84;5530408;32;34711;-88
2023/07/19 09:05:14;;;;;;;15.82;5.85;;;;;;;28.63;66.12;99920.81;5530475;32;33748;-88
2023/07/19 09:08:16;;;;;;;9.25;5.65;;;;;;;29.26;62.73;99916.87;5532019;32;33826;-87
2023/07/19 09:11:21;;;;;;;9.90;5.65;;;;;;;29.44;62.41;99915.41;5531602;32;34012;-88
2023/07/19 09:14:34;;;;;;;14.85;5.70;;;;;;;29.58;61.95;99921.72;5531791;32;33554;-92
2023/07/19 09:17:42;;;;;;;11.30;5.90;;;;;;;29.61;61.64;99920.44;5531819;32;34427;-88
2023/07/19 09:20:45;;;;;;;7.40;5.35;;;;;;;29.88;60.51;99934.03;5531858;32;33723;-88
2023/07/19 09:23:48;;;;;;;11.30;5.55;;;;;;;29.72;60.64;99926.09;5531720;32;32933;-88
2023/07/19 09:26:57;;;;;;;12.75;5.75;;;;;;;29.46;62.72;99926.94;5531238;32;33546;-88
2023/07/19 09:30:01;;;;;;;16.98;6.25;;;;;;;28.77;64.27;99930.69;5531478;32;33807;-88
2023/07/19 09:33:03;;;;;;;9.00;5.78;;;;;;;28.30;66.97;99933.31;5532003;32;33458;-88
2023/07/19 09:36:06;;;;;;;18.00;6.43;;;;;;;28.31;66.83;99926.00;5531564;32;33842;-88
2023/07/19 09:39:09;;;;;;;15.70;5.95;;;;;;;28.61;66.51;99920.19;5532069;32;34657;-88
2023/07/19 09:42:13;;;;;;;10.02;5.93;;;;;;;28.65;67.23;99910.53;5533796;32;33826;-88
2023/07/19 09:45:20;;;;;;;14.93;6.10;;;;;;;28.58;68.08;99906.97;5532979;32;33960;-88
2023/07/19 09:48:25;;;;;;;11.20;5.82;;;;;;;28.56;66.87;99904.41;5533045;32;34020;-88
2023/07/19 09:51:31;;;;;;;18.73;6.72;;;;;;;28.43;66.43;99904.41;5531362;32;33941;-88
2023/07/19 09:54:34;;;;;;;19.37;6.30;;;;;;;28.33;67.79;99902.06;5531649;32;33492;-88
2023/07/19 09:57:40;;;;;;;9.57;5.68;;;;;;;28.46;68.40;99906.72;5531274;32;34020;-88
2023/07/19 10:00:43;;;;;;;12.57;6.55;;;;;;;28.57;66.43;99911.59;5532536;32;33534;-88
2023/07/19 10:03:46;;;;;;;10.13;6.55;;;;;;;29.31;66.25;99903.44;5533519;32;33650;-88
2023/07/19 10:06:49;;;;;;;14.50;5.97;;;;;;;29.94;63.12;99908.56;5534697;32;33860;-88
2023/07/19 10:10:04;;;;;;;13.30;5.93;;;;;;;30.63;58.58;99897.09;5538461;32;36035;-88
2023/07/19 10:13:08;;;;;;;10.98;5.95;;;;;;;30.38;58.85;99901.44;5545764;32;34800;-88
2023/07/19 10:16:22;;;;;;;13.15;6.20;;;;;;;30.85;58.89;99886.63;5544200;32;34243;-88
2023/07/19 10:19:26;;;;;;;13.00;5.90;;;;;;;31.60;55.42;99884.91;5533271;32;34554;-88
2023/07/19 10:22:56;;;;;;;12.63;5.50;;;;;;;31.71;54.67;99886.03;5532334;32;34031;-88
2023/07/19 10:26:09;;;;;;;10.45;6.20;;;;;;;30.88;56.98;99877.13;5530503;32;34251;-88
2023/07/19 10:29:16;;;;;;;9.70;5.72;;;;;;;31.79;54.62;99870.34;5531325;32;34011;-92
2023/07/19 10:32:19;;;;;;;12.10;5.90;;;;;;;32.55;52.26;99867.25;5530591;32;33811;-88
2023/07/19 10:35:31;;;;;;;12.07;5.80;;;;;;;33.38;47.14;99868.41;5530322;32;33761;-88
2023/07/19 10:38:34;;;;;;;12.95;5.50;;;;;;;34.24;43.17;99869.66;5531862;32;33909;-89
2023/07/19 10:41:37;;;;;;;6.72;5.00;;;;;;;33.59;44.09;99859.53;5530993;32;33766;-88
2023/07/19 10:44:40;;;;;;;8.60;5.18;;;;;;;33.25;45.50;99855.72;5531281;32;33746;-88
2023/07/19 10:47:43;;;;;;;12.20;4.90;;;;;;;34.45;43.22;99850.72;5530891;32;33693;-88
2023/07/19 10:50:46;;;;;;;8.23;5.60;;;;;;;33.09;44.86;99838.06;5531009;32;33674;-88
2023/07/19 10:53:57;;;;;;;12.07;5.50;;;;;;;32.40;45.73;99835.59;5531576;32;32967;-88
2023/07/19 10:57:01;;;;;;;18.27;5.62;;;;;;;32.04;47.38;99840.09;5532297;32;33565;-88
2023/07/19 11:00:10;;;;;;;15.90;5.25;;;;;;;31.66;48.08;99833.78;5531210;32;34326;-87
2023/07/19 11:03:15;;;;;;;14.13;5.55;;;;;;;32.20;46.75;99816.66;5537583;32;33960;-88
2023/07/19 11:06:19;;;;;;;11.38;5.00;;;;;;;32.44;46.02;99824.13;5540380;32;33340;-88
2023/07/19 11:09:22;;;;;;;7.80;4.90;;;;;;;32.88;44.48;99829.34;5535961;32;35195;-88
2023/07/19 11:12:25;;;;;;;8.32;4.90;;;;;;;33.25;44.38;99837.34;5535041;32;34727;-87
2023/07/19 11:15:28;;;;;;;10.18;4.85;;;;;;;34.88;39.71;99837.44;5533614;32;34126;-87
2023/07/19 11:18:39;;;;;;;10.25;4.97;;;;;;;34.70;39.10;99830.25;5531535;32;33965;-86
2023/07/19 11:21:44;;;;;;;9.68;5.07;;;;;;;33.27;41.06;99832.44;5533672;32;33295;-86
2023/07/19 11:24:49;;;;;;;13.98;5.30;;;;;;;33.87;40.09;99835.06;5533246;32;33595;-87
2023/07/19 11:27:55;;;;;;;8.77;5.03;;;;;;;32.95;40.89;99816.31;5532794;32;33691;-87
2023/07/19 11:30:58;;;;;;;8.30;5.00;;;;;;;32.32;43.29;99813.94;5531360;32;32915;-87
2023/07/19 11:34:08;;;;;;;13.65;4.85;;;;;;;33.00;41.94;99807.38;5532604;32;33957;-87
2023/07/19 11:37:36;;;;;;;9.60;4.95;;;;;;;33.56;41.05;99812.44;5532579;32;33568;-87
2023/07/19 11:40:44;;;;;;;7.70;4.68;;;;;;;33.17;40.69;99813.81;5531137;32;33964;-87
2023/07/19 11:43:50;;;;;;;9.63;4.90;;;;;;;33.78;39.08;99814.53;5530742;32;33391;-87
2023/07/19 11:46:52;;;;;;;10.32;5.00;;;;;;;33.76;41.88;99817.53;5530343;32;34558;-91
2023/07/19 11:49:55;;;;;;;7.90;5.45;;;;;;;34.07;39.70;99806.31;5530154;32;33903;-91
2023/07/19 11:53:01;;;;;;;8.90;5.55;;;;;;;34.28;39.78;99807.50;5530057;32;33707;-91
2023/07/19 11:56:05;;;;;;;11.32;5.22;;;;;;;34.30;39.06;99807.25;5529283;32;33734;-86
2023/07/19 11:59:13;;;;;;;9.63;5.45;;;;;;;33.99;38.38;99810.28;5529107;32;34243;-87
2023/07/19 12:02:16;;;;;;;7.93;5.35;;;;;;;32.91;42.43;99802.22;5529699;32;34634;-86
2023/07/19 12:05:21;;;;;;;7.53;5.35;;;;;;;33.17;43.31;99789.09;5529512;32;34352;-87
2023/07/19 12:08:25;;;;;;;9.98;5.30;;;;;;;33.38;39.78;99791.44;5530093;32;34553;-87
2023/07/19 12:11:30;;;;;;;7.62;4.57;;;;;;;33.03;40.12;99791.25;5530751;32;34602;-87
2023/07/19 12:14:32;;;;;;;9.40;4.82;;;;;;;33.26;41.35;99786.81;5531818;32;33921;-87
2023/07/19 12:17:36;;;;;;;6.37;4.70;;;;;;;33.41;38.57;99785.44;5531473;32;33666;-87
2023/07/19 12:20:38;;;;;;;6.07;4.30;;;;;;;33.10;39.73;99777.41;5534275;32;33939;-87
2023/07/19 12:23:43;;;;;;;7.05;4.37;;;;;;;33.74;36.42;99767.47;5537476;32;33752;-86
2023/07/19 12:27:00;;;;;;;8.15;4.07;;;;;;;33.70;36.47;99772.63;5536154;32;34023;-86
2023/07/19 12:30:03;;;;;;;7.87;4.32;;;;;;;33.57;35.46;99759.13;5531843;32;34373;-86
2023/07/19 12:33:06;;;;;;;4.95;4.15;;;;;;;34.17;34.26;99747.91;5533273;32;33836;-86
2023/07/19 12:36:09;;;;;;;10.45;5.30;;;;;;;34.32;33.30;99739.03;5534142;32;33872;-86
2023/07/19 12:39:11;;;;;;;6.78;4.12;;;;;;;33.69;35.87;99731.59;5533332;32;33264;-87
2023/07/19 12:42:15;;;;;;;5.43;4.53;;;;;;;33.64;35.25;99717.75;5534161;32;34106;-86
2023/07/19 12:45:19;;;;;;;5.18;3.92;;;;;;;33.92;33.42;99729.81;5532691;32;33993;-87
2023/07/19 12:48:22;;;;;;;8.07;4.32;;;;;;;33.41;35.50;99714.00;5536647;32;34713;-87
2023/07/19 12:51:25;;;;;;;7.53;4.20;;;;;;;33.46;34.24;99708.59;5536165;32;34250;-87
2023/07/19 12:54:28;;;;;;;6.18;4.00;;;;;;;33.13;35.10;99705.47;5531987;32;33872;-87
2023/07/19 12:57:31;;;;;;;7.15;3.92;;;;;;;33.19;36.01;99707.25;5531298;32;33575;-86
2023/07/19 13:00:35;;;;;;;9.43;4.40;;;;;;;33.54;34.89;99702.72;5531382;32;33648;-87
2023/07/19 13:03:37;;;;;;;6.97;4.07;;;;;;;33.41;35.90;99698.34;5531072;32;34785;-86
2023/07/19 13:06:40;;;;;;;6.30;3.92;;;;;;;33.76;34.58;99703.94;5531646;32;33733;-87
2023/07/19 13:09:43;;;;;;;4.45;3.75;;;;;;;33.65;34.12;99705.69;5531840;32;34342;-87
2023/07/19 13:12:46;;;;;;;8.27;4.32;;;;;;;33.47;33.58;99707.50;5531446;32;34764;-87
2023/07/19 13:15:48;;;;;;;9.63;3.95;;;;;;;33.15;33.29;99699.75;5531114;32;33781;-87
2023/07/19 13:18:51;;;;;;;7.20;3.75;;;;;;;32.57;33.85;99691.34;5532625;32;34865;-87
2023/07/19 13:21:54;;;;;;;6.00;3.30;;;;;;;32.62;31.73;99683.22;5532863;32;34087;-87
2023/07/19 13:24:57;;;;;;;6.90;3.72;;;;;;;32.66;32.62;99676.16;5534041;32;33651;-87
2023/07/19 13:27:59;;;;;;;8.93;4.20;;;;;;;33.03;31.24;99675.88;5532578;32;33867;-86
2023/07/19 13:31:02;;;;;;;9.30;3.70;;;;;;;32.78;32.01;99660.50;5532754;32;33847;-87
2023/07/19 13:34:05;;;;;;;6.57;4.45;;;;;;;33.22;32.03;99655.66;5532080;32;34336;-87
2023/07/19 13:37:08;;;;;;;7.55;4.50;;;;;;;32.73;32.41;99643.91;5532083;32;33888;-87
2023/07/19 13:40:11;;;;;;;6.60;4.00;;;;;;;32.58;32.98;99638.09;5533076;32;33979;-87
2023/07/19 13:43:14;;;;;;;9.52;4.43;;;;;;;33.07;31.72;99624.03;5536752;32;34146;-86
2023/07/19 13:46:17;;;;;;;8.25;4.25;;;;;;;32.86;32.54;99617.25;5544370;32;33504;-86
2023/07/19 13:49:20;;;;;;;4.80;3.70;;;;;;;32.99;33.57;99622.53;5544150;32;34336;-87
2023/07/19 13:52:22;;;;;;;8.23;3.78;;;;;;;32.58;33.05;99606.00;5535717;32;34145;-89
2023/07/19 13:55:25;;;;;;;5.70;4.07;;;;;;;33.03;31.51;99592.66;5533028;32;34553;-91
2023/07/19 13:58:31;;;;;;;8.52;3.95;;;;;;;32.82;31.87;99588.66;5532851;32;34215;-91
2023/07/19 14:01:34;;;;;;;7.62;4.15;;;;;;;32.93;31.50;99588.59;5533725;32;34441;-88
2023/07/19 14:04:37;;;;;;;9.50;3.92;;;;;;;32.59;32.07;99584.88;5532411;32;33986;-87
2023/07/19 14:07:40;;;;;;;4.15;3.65;;;;;;;32.72;32.52;99592.84;5532767;32;34083;-87
2023/07/19 14:10:43;;;;;;;7.28;3.90;;;;;;;32.72;32.84;99601.06;5531479;32;34823;-87
2023/07/19 14:13:48;;;;;;;7.37;3.90;;;;;;;32.91;32.26;99607.25;5531782;32;33872;-87
2023/07/19 14:16:54;;;;;;;8.65;3.92;;;;;;;33.05;32.10;99604.22;5532578;32;33742;-88
2023/07/19 14:19:57;;;;;;;6.32;3.90;;;;;;;32.73;32.06;99594.50;5535096;32;33884;-87
2023/07/19 14:23:00;;;;;;;7.47;4.37;;;;;;;32.43;32.62;99594.69;5537276;32;33744;-87
2023/07/19 14:26:03;;;;;;;8.07;4.57;;;;;;;32.43;33.61;99602.94;5533737;32;34130;-86
2023/07/19 14:29:06;;;;;;;9.18;4.55;;;;;;;32.54;33.52;99591.91;5533703;32;33862;-87
2023/07/19 14:32:09;;;;;;;6.18;3.80;;;;;;;32.08;33.92;99579.91;5531872;32;34511;-87
2023/07/19 14:35:13;;;;;;;5.32;4.07;;;;;;;32.05;34.33;99581.22;5531594;32;34352;-87
2023/07/19 14:38:16;;;;;;;6.90;4.18;;;;;;;32.37;33.90;99621.97;5531583;32;33882;-87
2023/07/19 14:41:19;;;;;;;9.30;4.40;;;;;;;32.54;33.54;99618.53;5531030;32;34950;-87
2023/07/19 14:44:23;;;;;;;7.43;4.50;;;;;;;32.50;33.18;99618.19;5532764;32;34431;-87
2023/07/19 14:47:26;;;;;;;8.85;3.95;;;;;;;32.25;33.72;99616.53;5532015;32;34114;-87
2023/07/19 14:50:28;;;;;;;5.78;4.05;;;;;;;32.30;33.39;99613.06;5532338;32;34156;-87
2023/07/19 14:53:31;;;;;;;6.85;4.20;;;;;;;32.33;33.27;99628.19;5529790;32;33808;-87
2023/07/19 14:56:34;;;;;;;7.50;4.12;;;;;;;32.23;33.37;99632.38;5530935;32;33649;-87
2023/07/19 14:59:37;;;;;;;8.60;4.25;;;;;;;32.04;33.71;99650.84;5530474;32;34184;-87
2023/07/19 15:02:45;;;;;;;6.82;4.00;;;;;;;31.98;34.19;99641.66;5531377;32;34864;-87
2023/07/19 15:06:02;;;;;;;9.88;4.45;;;;;;;31.90;34.00;99632.94;5531217;32;33728;-87
2023/07/19 15:09:04;;;;;;;4.72;3.97;;;;;;;31.40;35.29;99630.28;5530263;32;33919;-87
2023/07/19 15:12:08;;;;;;;7.93;4.25;;;;;;;31.43;35.17;99629.00;5530219;32;34006;-87
2023/07/19 15:15:12;;;;;;;7.15;4.47;;;;;;;31.53;35.13;99629.25;5530896;32;34842;-86
2023/07/19 15:18:16;;;;;;;7.85;4.47;;;;;;;31.42;36.54;99619.09;5531057;32;34562;-87
2023/07/19 15:21:19;;;;;;;9.75;4.78;;;;;;;31.41;35.90;99614.66;5530249;32;33417;-87
